sensor_id;sensor_type;location;lat;lon;timestamp;temperature;humidity
18321;DHT22;54904;54.350;18.664;2024-01-06T00:00:01;2.20;96.80
18321;DHT22;54904;54.350;18.664;2024-01-06T00:02:37;2.10;96.80
18321;DHT22;54904;54.350;18.664;2024-01-06T00:05:05;2.20;96.90
18321;DHT22;54904;54.350;18.664;2024-01-06T00:07:34;2.20;97.00
18321;DHT22;54904;54.350;18.664;2024-01-06T00:10:01;2.20;97.00
18321;DHT22;54904;54.350;18.664;2024-01-06T00:12:28;2.20;97.10
18321;DHT22;54904;54.350;18.664;2024-01-06T00:14:56;2.20;97.10
18321;DHT22;54904;54.350;18.664;2024-01-06T00:17:24;2.20;97.20
18321;DHT22;54904;54.350;18.664;2024-01-06T00:19:51;2.30;97.20
18321;DHT22;54904;54.350;18.664;2024-01-06T00:22:17;2.30;97.20
18321;DHT22;54904;54.350;18.664;2024-01-06T00:24:45;2.30;97.20
18321;DHT22;54904;54.350;18.664;2024-01-06T00:27:12;2.30;97.20
18321;DHT22;54904;54.350;18.664;2024-01-06T00:29:41;2.30;97.40
18321;DHT22;54904;54.350;18.664;2024-01-06T00:32:09;2.30;97.50
18321;DHT22;54904;54.350;18.664;2024-01-06T00:34:37;2.20;97.50
18321;DHT22;54904;54.350;18.664;2024-01-06T00:37:04;2.20;97.60
18321;DHT22;54904;54.350;18.664;2024-01-06T00:39:31;2.30;97.80
18321;DHT22;54904;54.350;18.664;2024-01-06T00:41:58;2.30;97.90
18321;DHT22;54904;54.350;18.664;2024-01-06T00:44:25;2.40;98.00
18321;DHT22;54904;54.350;18.664;2024-01-06T00:46:52;2.40;98.00
18321;DHT22;54904;54.350;18.664;2024-01-06T00:49:22;2.40;98.10
18321;DHT22;54904;54.350;18.664;2024-01-06T00:51:50;2.40;98.10
18321;DHT22;54904;54.350;18.664;2024-01-06T00:54:17;2.30;98.20
18321;DHT22;54904;54.350;18.664;2024-01-06T00:56:44;2.40;98.30
18321;DHT22;54904;54.350;18.664;2024-01-06T00:59:11;2.40;98.40
18321;DHT22;54904;54.350;18.664;2024-01-06T01:01:39;2.40;98.40
18321;DHT22;54904;54.350;18.664;2024-01-06T01:04:06;2.40;98.50
18321;DHT22;54904;54.350;18.664;2024-01-06T01:06:32;2.50;98.50
18321;DHT22;54904;54.350;18.664;2024-01-06T01:09:00;2.60;98.60
18321;DHT22;54904;54.350;18.664;2024-01-06T01:11:28;2.60;98.60
18321;DHT22;54904;54.350;18.664;2024-01-06T01:13:57;2.60;98.60
18321;DHT22;54904;54.350;18.664;2024-01-06T01:16:24;2.60;98.60
18321;DHT22;54904;54.350;18.664;2024-01-06T01:18:51;2.60;98.70
18321;DHT22;54904;54.350;18.664;2024-01-06T01:21:19;2.60;98.80
18321;DHT22;54904;54.350;18.664;2024-01-06T01:23:46;2.70;98.90
18321;DHT22;54904;54.350;18.664;2024-01-06T01:26:14;2.70;98.90
18321;DHT22;54904;54.350;18.664;2024-01-06T01:28:41;2.70;98.90
18321;DHT22;54904;54.350;18.664;2024-01-06T01:31:08;2.70;98.90
18321;DHT22;54904;54.350;18.664;2024-01-06T01:33:35;2.70;99.00
18321;DHT22;54904;54.350;18.664;2024-01-06T01:36:03;2.70;99.00
18321;DHT22;54904;54.350;18.664;2024-01-06T01:38:30;2.70;99.10
18321;DHT22;54904;54.350;18.664;2024-01-06T01:40:57;2.70;99.20
18321;DHT22;54904;54.350;18.664;2024-01-06T01:43:26;2.70;99.20
18321;DHT22;54904;54.350;18.664;2024-01-06T01:45:55;2.80;99.30
18321;DHT22;54904;54.350;18.664;2024-01-06T01:48:23;2.80;99.40
18321;DHT22;54904;54.350;18.664;2024-01-06T01:50:52;2.80;99.40
18321;DHT22;54904;54.350;18.664;2024-01-06T01:53:19;2.80;99.40
18321;DHT22;54904;54.350;18.664;2024-01-06T01:55:48;2.80;99.50
18321;DHT22;54904;54.350;18.664;2024-01-06T01:58:16;2.80;99.60
18321;DHT22;54904;54.350;18.664;2024-01-06T02:00:44;2.70;99.60
18321;DHT22;54904;54.350;18.664;2024-01-06T02:03:13;2.70;99.60
18321;DHT22;54904;54.350;18.664;2024-01-06T02:05:41;2.70;99.70
18321;DHT22;54904;54.350;18.664;2024-01-06T02:08:08;2.80;99.80
18321;DHT22;54904;54.350;18.664;2024-01-06T02:10:35;2.70;99.80
18321;DHT22;54904;54.350;18.664;2024-01-06T02:13:09;2.80;99.90
18321;DHT22;54904;54.350;18.664;2024-01-06T02:15:37;2.80;99.90
18321;DHT22;54904;54.350;18.664;2024-01-06T02:18:06;2.80;99.90
18321;DHT22;54904;54.350;18.664;2024-01-06T02:20:33;2.80;99.90
18321;DHT22;54904;54.350;18.664;2024-01-06T02:23:02;2.80;99.90
18321;DHT22;54904;54.350;18.664;2024-01-06T02:25:29;2.80;99.90
18321;DHT22;54904;54.350;18.664;2024-01-06T02:27:56;2.80;99.90
18321;DHT22;54904;54.350;18.664;2024-01-06T02:30:23;2.80;99.90
18321;DHT22;54904;54.350;18.664;2024-01-06T02:32:50;2.80;99.90
18321;DHT22;54904;54.350;18.664;2024-01-06T02:35:17;2.80;99.90
18321;DHT22;54904;54.350;18.664;2024-01-06T02:37:46;2.80;99.90
18321;DHT22;54904;54.350;18.664;2024-01-06T02:40:15;2.80;99.90
18321;DHT22;54904;54.350;18.664;2024-01-06T02:42:42;2.80;99.90
18321;DHT22;54904;54.350;18.664;2024-01-06T02:45:09;2.70;99.90
18321;DHT22;54904;54.350;18.664;2024-01-06T02:47:36;2.70;99.90
18321;DHT22;54904;54.350;18.664;2024-01-06T02:50:04;2.70;99.90
18321;DHT22;54904;54.350;18.664;2024-01-06T02:52:31;2.70;99.90
18321;DHT22;54904;54.350;18.664;2024-01-06T02:54:59;2.70;99.90
18321;DHT22;54904;54.350;18.664;2024-01-06T02:57:29;2.80;99.90
18321;DHT22;54904;54.350;18.664;2024-01-06T02:59:56;2.80;99.90
18321;DHT22;54904;54.350;18.664;2024-01-06T03:02:23;2.80;99.90
18321;DHT22;54904;54.350;18.664;2024-01-06T03:04:50;2.80;99.90
18321;DHT22;54904;54.350;18.664;2024-01-06T03:07:17;2.70;99.90
18321;DHT22;54904;54.350;18.664;2024-01-06T03:09:44;2.80;99.90
18321;DHT22;54904;54.350;18.664;2024-01-06T03:12:11;2.80;99.90
18321;DHT22;54904;54.350;18.664;2024-01-06T03:14:40;2.80;99.90
18321;DHT22;54904;54.350;18.664;2024-01-06T03:17:07;2.80;99.60
18321;DHT22;54904;54.350;18.664;2024-01-06T03:19:36;2.80;99.20
18321;DHT22;54904;54.350;18.664;2024-01-06T03:22:03;2.80;99.10
18321;DHT22;54904;54.350;18.664;2024-01-06T03:24:30;2.80;98.90
18321;DHT22;54904;54.350;18.664;2024-01-06T03:26:57;2.80;98.60
18321;DHT22;54904;54.350;18.664;2024-01-06T03:29:25;2.80;98.40
18321;DHT22;54904;54.350;18.664;2024-01-06T03:31:53;2.80;98.20
18321;DHT22;54904;54.350;18.664;2024-01-06T03:34:20;2.80;98.00
18321;DHT22;54904;54.350;18.664;2024-01-06T03:36:47;2.80;97.50
18321;DHT22;54904;54.350;18.664;2024-01-06T03:39:14;2.80;97.40
18321;DHT22;54904;54.350;18.664;2024-01-06T03:41:41;2.90;97.30
18321;DHT22;54904;54.350;18.664;2024-01-06T03:44:08;2.90;97.30
18321;DHT22;54904;54.350;18.664;2024-01-06T03:46:35;2.90;97.20
18321;DHT22;54904;54.350;18.664;2024-01-06T03:49:04;2.90;97.10
18321;DHT22;54904;54.350;18.664;2024-01-06T03:51:31;2.90;97.10
18321;DHT22;54904;54.350;18.664;2024-01-06T03:53:58;2.90;96.90
18321;DHT22;54904;54.350;18.664;2024-01-06T03:56:25;2.90;96.80
18321;DHT22;54904;54.350;18.664;2024-01-06T03:58:52;2.90;96.70
18321;DHT22;54904;54.350;18.664;2024-01-06T04:01:20;2.90;96.60
18321;DHT22;54904;54.350;18.664;2024-01-06T04:03:47;2.90;96.30
18321;DHT22;54904;54.350;18.664;2024-01-06T04:06:16;3.00;96.30
18321;DHT22;54904;54.350;18.664;2024-01-06T04:08:43;3.10;96.10
18321;DHT22;54904;54.350;18.664;2024-01-06T04:11:10;3.10;95.90
18321;DHT22;54904;54.350;18.664;2024-01-06T04:13:37;3.10;95.80
18321;DHT22;54904;54.350;18.664;2024-01-06T04:16:04;3.10;95.90
18321;DHT22;54904;54.350;18.664;2024-01-06T04:18:31;3.10;95.90
18321;DHT22;54904;54.350;18.664;2024-01-06T04:20:58;3.10;95.90
18321;DHT22;54904;54.350;18.664;2024-01-06T04:23:27;3.00;95.90
18321;DHT22;54904;54.350;18.664;2024-01-06T04:25:54;3.00;95.80
18321;DHT22;54904;54.350;18.664;2024-01-06T04:28:21;3.00;95.70
18321;DHT22;54904;54.350;18.664;2024-01-06T04:30:48;3.00;95.70
18321;DHT22;54904;54.350;18.664;2024-01-06T04:33:15;3.00;95.70
18321;DHT22;54904;54.350;18.664;2024-01-06T04:35:42;3.00;95.60
18321;DHT22;54904;54.350;18.664;2024-01-06T04:38:09;2.90;95.50
18321;DHT22;54904;54.350;18.664;2024-01-06T04:40:37;2.90;95.40
18321;DHT22;54904;54.350;18.664;2024-01-06T04:43:05;2.90;95.40
18321;DHT22;54904;54.350;18.664;2024-01-06T04:45:32;2.90;95.30
18321;DHT22;54904;54.350;18.664;2024-01-06T04:47:59;2.90;95.30
18321;DHT22;54904;54.350;18.664;2024-01-06T04:50:26;2.90;95.20
18321;DHT22;54904;54.350;18.664;2024-01-06T04:52:53;2.90;95.10
18321;DHT22;54904;54.350;18.664;2024-01-06T04:55:20;2.90;95.00
18321;DHT22;54904;54.350;18.664;2024-01-06T04:57:49;2.90;94.90
18321;DHT22;54904;54.350;18.664;2024-01-06T05:00:16;2.90;94.80
18321;DHT22;54904;54.350;18.664;2024-01-06T05:02:43;2.90;94.70
18321;DHT22;54904;54.350;18.664;2024-01-06T05:05:11;2.90;94.50
18321;DHT22;54904;54.350;18.664;2024-01-06T05:07:38;2.90;94.40
18321;DHT22;54904;54.350;18.664;2024-01-06T05:10:06;2.90;94.30
18321;DHT22;54904;54.350;18.664;2024-01-06T05:12:34;2.90;94.30
18321;DHT22;54904;54.350;18.664;2024-01-06T05:15:02;2.90;94.10
18321;DHT22;54904;54.350;18.664;2024-01-06T05:17:30;2.90;93.80
18321;DHT22;54904;54.350;18.664;2024-01-06T05:19:57;2.90;93.80
18321;DHT22;54904;54.350;18.664;2024-01-06T05:22:24;2.90;93.60
18321;DHT22;54904;54.350;18.664;2024-01-06T05:24:51;2.80;93.70
18321;DHT22;54904;54.350;18.664;2024-01-06T05:27:18;2.80;93.80
18321;DHT22;54904;54.350;18.664;2024-01-06T05:29:46;2.80;94.00
18321;DHT22;54904;54.350;18.664;2024-01-06T05:32:16;2.80;93.80
18321;DHT22;54904;54.350;18.664;2024-01-06T05:34:43;2.80;93.90
18321;DHT22;54904;54.350;18.664;2024-01-06T05:37:11;2.80;93.80
18321;DHT22;54904;54.350;18.664;2024-01-06T05:39:38;2.90;93.90
18321;DHT22;54904;54.350;18.664;2024-01-06T05:42:06;2.90;93.90
18321;DHT22;54904;54.350;18.664;2024-01-06T05:44:35;2.90;93.90
18321;DHT22;54904;54.350;18.664;2024-01-06T05:47:03;2.90;93.90
18321;DHT22;54904;54.350;18.664;2024-01-06T05:49:31;2.90;93.90
18321;DHT22;54904;54.350;18.664;2024-01-06T05:51:58;2.90;94.00
18321;DHT22;54904;54.350;18.664;2024-01-06T05:54:26;2.90;93.90
18321;DHT22;54904;54.350;18.664;2024-01-06T05:56:53;3.00;93.90
18321;DHT22;54904;54.350;18.664;2024-01-06T05:59:20;3.00;93.90
18321;DHT22;54904;54.350;18.664;2024-01-06T06:01:47;3.00;93.90
18321;DHT22;54904;54.350;18.664;2024-01-06T06:04:14;2.90;93.80
18321;DHT22;54904;54.350;18.664;2024-01-06T06:06:42;3.00;93.80
18321;DHT22;54904;54.350;18.664;2024-01-06T06:09:09;2.90;93.80
18321;DHT22;54904;54.350;18.664;2024-01-06T06:11:36;2.90;94.10
18321;DHT22;54904;54.350;18.664;2024-01-06T06:14:03;2.90;93.80
18321;DHT22;54904;54.350;18.664;2024-01-06T06:16:31;3.00;93.80
18321;DHT22;54904;54.350;18.664;2024-01-06T06:18:58;3.00;93.80
18321;DHT22;54904;54.350;18.664;2024-01-06T06:21:25;3.00;93.80
18321;DHT22;54904;54.350;18.664;2024-01-06T06:23:54;3.00;93.80
18321;DHT22;54904;54.350;18.664;2024-01-06T06:26:22;3.00;93.80
18321;DHT22;54904;54.350;18.664;2024-01-06T06:28:49;2.90;93.80
18321;DHT22;54904;54.350;18.664;2024-01-06T06:31:16;2.90;93.80
18321;DHT22;54904;54.350;18.664;2024-01-06T06:33:43;2.90;93.70
18321;DHT22;54904;54.350;18.664;2024-01-06T06:36:10;2.90;93.70
18321;DHT22;54904;54.350;18.664;2024-01-06T06:38:37;2.90;93.60
18321;DHT22;54904;54.350;18.664;2024-01-06T06:41:06;2.90;93.20
18321;DHT22;54904;54.350;18.664;2024-01-06T06:43:33;2.90;92.90
18321;DHT22;54904;54.350;18.664;2024-01-06T06:46:00;2.90;92.80
18321;DHT22;54904;54.350;18.664;2024-01-06T06:48:28;2.90;92.80
18321;DHT22;54904;54.350;18.664;2024-01-06T06:50:55;2.80;92.80
18321;DHT22;54904;54.350;18.664;2024-01-06T06:53:22;2.80;92.80
18321;DHT22;54904;54.350;18.664;2024-01-06T06:55:49;2.80;92.80
18321;DHT22;54904;54.350;18.664;2024-01-06T06:58:17;2.80;92.70
18321;DHT22;54904;54.350;18.664;2024-01-06T07:00:44;3.00;92.80
18321;DHT22;54904;54.350;18.664;2024-01-06T07:03:11;2.90;92.70
18321;DHT22;54904;54.350;18.664;2024-01-06T07:05:39;3.00;92.70
18321;DHT22;54904;54.350;18.664;2024-01-06T07:08:06;3.00;92.60
18321;DHT22;54904;54.350;18.664;2024-01-06T07:10:33;3.00;92.70
18321;DHT22;54904;54.350;18.664;2024-01-06T07:13:00;3.00;92.70
18321;DHT22;54904;54.350;18.664;2024-01-06T07:15:29;3.00;92.70
18321;DHT22;54904;54.350;18.664;2024-01-06T07:17:56;3.00;92.70
18321;DHT22;54904;54.350;18.664;2024-01-06T07:20:23;3.00;92.60
18321;DHT22;54904;54.350;18.664;2024-01-06T07:22:50;3.00;92.60
18321;DHT22;54904;54.350;18.664;2024-01-06T07:25:17;3.00;92.60
18321;DHT22;54904;54.350;18.664;2024-01-06T07:27:44;3.00;92.70
18321;DHT22;54904;54.350;18.664;2024-01-06T07:30:12;2.90;92.60
18321;DHT22;54904;54.350;18.664;2024-01-06T07:32:40;3.00;92.50
18321;DHT22;54904;54.350;18.664;2024-01-06T07:35:08;3.00;92.50
18321;DHT22;54904;54.350;18.664;2024-01-06T07:37:35;3.00;92.40
18321;DHT22;54904;54.350;18.664;2024-01-06T07:40:02;3.00;92.40
18321;DHT22;54904;54.350;18.664;2024-01-06T07:42:29;3.00;92.40
18321;DHT22;54904;54.350;18.664;2024-01-06T07:44:57;3.00;92.40
18321;DHT22;54904;54.350;18.664;2024-01-06T07:47:24;3.00;92.40
18321;DHT22;54904;54.350;18.664;2024-01-06T07:49:55;3.10;92.70
18321;DHT22;54904;54.350;18.664;2024-01-06T07:52:23;3.10;92.40
18321;DHT22;54904;54.350;18.664;2024-01-06T07:54:50;3.10;92.30
18321;DHT22;54904;54.350;18.664;2024-01-06T07:57:17;3.00;92.30
18321;DHT22;54904;54.350;18.664;2024-01-06T07:59:45;3.00;92.30
18321;DHT22;54904;54.350;18.664;2024-01-06T08:02:12;3.00;92.30
18321;DHT22;54904;54.350;18.664;2024-01-06T08:04:39;3.10;92.20
18321;DHT22;54904;54.350;18.664;2024-01-06T08:07:07;3.10;92.10
18321;DHT22;54904;54.350;18.664;2024-01-06T08:09:35;3.10;92.10
18321;DHT22;54904;54.350;18.664;2024-01-06T08:12:02;3.10;92.00
18321;DHT22;54904;54.350;18.664;2024-01-06T08:14:29;3.10;92.00
18321;DHT22;54904;54.350;18.664;2024-01-06T08:16:56;3.20;91.90
18321;DHT22;54904;54.350;18.664;2024-01-06T08:19:23;3.20;91.90
18321;DHT22;54904;54.350;18.664;2024-01-06T08:21:51;3.30;91.90
18321;DHT22;54904;54.350;18.664;2024-01-06T08:24:19;3.30;91.60
18321;DHT22;54904;54.350;18.664;2024-01-06T08:26:47;3.30;91.30
18321;DHT22;54904;54.350;18.664;2024-01-06T08:29:14;3.30;91.00
18321;DHT22;54904;54.350;18.664;2024-01-06T08:31:42;3.30;91.10
18321;DHT22;54904;54.350;18.664;2024-01-06T08:34:09;3.30;91.20
18321;DHT22;54904;54.350;18.664;2024-01-06T08:36:36;3.40;91.10
18321;DHT22;54904;54.350;18.664;2024-01-06T08:39:05;3.40;91.20
18321;DHT22;54904;54.350;18.664;2024-01-06T08:41:35;3.40;91.20
18321;DHT22;54904;54.350;18.664;2024-01-06T08:44:02;3.40;91.20
18321;DHT22;54904;54.350;18.664;2024-01-06T08:46:29;3.40;91.20
18321;DHT22;54904;54.350;18.664;2024-01-06T08:48:57;3.40;91.30
18321;DHT22;54904;54.350;18.664;2024-01-06T08:51:24;3.40;91.30
18321;DHT22;54904;54.350;18.664;2024-01-06T08:53:52;3.40;91.30
18321;DHT22;54904;54.350;18.664;2024-01-06T08:56:19;3.40;91.30
18321;DHT22;54904;54.350;18.664;2024-01-06T08:58:48;3.40;91.20
18321;DHT22;54904;54.350;18.664;2024-01-06T09:01:15;3.40;91.00
18321;DHT22;54904;54.350;18.664;2024-01-06T09:03:42;3.50;91.00
18321;DHT22;54904;54.350;18.664;2024-01-06T09:06:09;3.50;91.00
18321;DHT22;54904;54.350;18.664;2024-01-06T09:08:36;3.50;90.90
18321;DHT22;54904;54.350;18.664;2024-01-06T09:11:03;3.50;90.90
18321;DHT22;54904;54.350;18.664;2024-01-06T09:13:31;3.50;90.90
18321;DHT22;54904;54.350;18.664;2024-01-06T09:16:00;3.50;90.80
18321;DHT22;54904;54.350;18.664;2024-01-06T09:18:27;3.60;90.90
18321;DHT22;54904;54.350;18.664;2024-01-06T09:20:54;3.50;90.80
18321;DHT22;54904;54.350;18.664;2024-01-06T09:23:22;3.60;90.80
18321;DHT22;54904;54.350;18.664;2024-01-06T09:25:49;3.70;90.60
18321;DHT22;54904;54.350;18.664;2024-01-06T09:28:17;3.70;90.60
18321;DHT22;54904;54.350;18.664;2024-01-06T09:30:47;3.70;90.50
18321;DHT22;54904;54.350;18.664;2024-01-06T09:33:15;3.70;90.50
18321;DHT22;54904;54.350;18.664;2024-01-06T09:35:43;3.70;90.60
18321;DHT22;54904;54.350;18.664;2024-01-06T09:38:10;3.70;90.50
18321;DHT22;54904;54.350;18.664;2024-01-06T09:40:42;3.70;90.50
18321;DHT22;54904;54.350;18.664;2024-01-06T09:43:10;3.60;90.50
18321;DHT22;54904;54.350;18.664;2024-01-06T09:45:37;3.60;90.50
18321;DHT22;54904;54.350;18.664;2024-01-06T09:48:10;3.60;90.50
18321;DHT22;54904;54.350;18.664;2024-01-06T09:50:40;3.60;90.40
18321;DHT22;54904;54.350;18.664;2024-01-06T09:53:10;3.60;90.40
18321;DHT22;54904;54.350;18.664;2024-01-06T09:55:38;3.60;90.30
18321;DHT22;54904;54.350;18.664;2024-01-06T09:58:05;3.60;90.30
18321;DHT22;54904;54.350;18.664;2024-01-06T10:00:33;3.70;90.30
18321;DHT22;54904;54.350;18.664;2024-01-06T10:03:00;3.70;90.40
18321;DHT22;54904;54.350;18.664;2024-01-06T10:05:27;3.90;90.40
18321;DHT22;54904;54.350;18.664;2024-01-06T10:07:55;3.90;90.30
18321;DHT22;54904;54.350;18.664;2024-01-06T10:10:22;3.90;90.30
18321;DHT22;54904;54.350;18.664;2024-01-06T10:12:56;3.90;90.20
18321;DHT22;54904;54.350;18.664;2024-01-06T10:15:23;3.90;90.20
18321;DHT22;54904;54.350;18.664;2024-01-06T10:17:50;4.00;90.10
18321;DHT22;54904;54.350;18.664;2024-01-06T10:20:17;4.10;90.10
18321;DHT22;54904;54.350;18.664;2024-01-06T10:22:45;4.00;90.00
18321;DHT22;54904;54.350;18.664;2024-01-06T10:25:14;4.00;90.10
18321;DHT22;54904;54.350;18.664;2024-01-06T10:27:41;4.00;90.10
18321;DHT22;54904;54.350;18.664;2024-01-06T10:30:09;4.00;90.20
18321;DHT22;54904;54.350;18.664;2024-01-06T10:32:39;4.00;90.20
18321;DHT22;54904;54.350;18.664;2024-01-06T10:35:06;3.90;90.20
18321;DHT22;54904;54.350;18.664;2024-01-06T10:37:37;3.90;90.40
18321;DHT22;54904;54.350;18.664;2024-01-06T10:40:10;3.90;90.50
18321;DHT22;54904;54.350;18.664;2024-01-06T10:42:40;3.90;90.60
18321;DHT22;54904;54.350;18.664;2024-01-06T10:45:08;3.90;90.60
18321;DHT22;54904;54.350;18.664;2024-01-06T10:47:36;3.90;90.50
18321;DHT22;54904;54.350;18.664;2024-01-06T10:50:04;3.80;90.30
18321;DHT22;54904;54.350;18.664;2024-01-06T10:52:32;3.80;89.70
18321;DHT22;54904;54.350;18.664;2024-01-06T10:55:01;3.80;89.50
18321;DHT22;54904;54.350;18.664;2024-01-06T10:57:29;3.80;89.40
18321;DHT22;54904;54.350;18.664;2024-01-06T11:00:00;3.80;89.30
18321;DHT22;54904;54.350;18.664;2024-01-06T11:02:27;3.80;89.10
18321;DHT22;54904;54.350;18.664;2024-01-06T11:04:54;3.90;89.20
18321;DHT22;54904;54.350;18.664;2024-01-06T11:07:23;3.90;88.70
18321;DHT22;54904;54.350;18.664;2024-01-06T11:09:56;3.90;88.60
18321;DHT22;54904;54.350;18.664;2024-01-06T11:12:24;3.90;88.60
18321;DHT22;54904;54.350;18.664;2024-01-06T11:14:52;3.90;88.80
18321;DHT22;54904;54.350;18.664;2024-01-06T11:17:52;3.90;89.00
18321;DHT22;54904;54.350;18.664;2024-01-06T11:20:22;3.90;89.10
18321;DHT22;54904;54.350;18.664;2024-01-06T11:22:49;3.90;89.10
18321;DHT22;54904;54.350;18.664;2024-01-06T11:25:17;3.90;89.20
18321;DHT22;54904;54.350;18.664;2024-01-06T11:27:46;4.00;89.00
18321;DHT22;54904;54.350;18.664;2024-01-06T11:30:21;4.00;88.50
18321;DHT22;54904;54.350;18.664;2024-01-06T11:32:51;4.00;88.60
18321;DHT22;54904;54.350;18.664;2024-01-06T11:35:20;4.00;88.80
18321;DHT22;54904;54.350;18.664;2024-01-06T11:37:54;4.00;89.10
18321;DHT22;54904;54.350;18.664;2024-01-06T11:40:32;4.00;89.30
18321;DHT22;54904;54.350;18.664;2024-01-06T11:43:04;4.00;89.50
18321;DHT22;54904;54.350;18.664;2024-01-06T11:45:32;4.00;89.40
18321;DHT22;54904;54.350;18.664;2024-01-06T11:48:02;4.00;89.30
18321;DHT22;54904;54.350;18.664;2024-01-06T11:50:31;4.00;89.50
18321;DHT22;54904;54.350;18.664;2024-01-06T11:52:59;4.00;89.60
18321;DHT22;54904;54.350;18.664;2024-01-06T11:55:26;4.00;89.80
18321;DHT22;54904;54.350;18.664;2024-01-06T11:57:55;4.10;90.00
18321;DHT22;54904;54.350;18.664;2024-01-06T12:00:23;4.00;89.90
18321;DHT22;54904;54.350;18.664;2024-01-06T12:02:56;4.00;90.00
18321;DHT22;54904;54.350;18.664;2024-01-06T12:05:25;4.00;90.00
18321;DHT22;54904;54.350;18.664;2024-01-06T12:07:57;4.00;89.90
18321;DHT22;54904;54.350;18.664;2024-01-06T12:10:27;4.10;90.00
18321;DHT22;54904;54.350;18.664;2024-01-06T12:12:55;4.10;89.80
18321;DHT22;54904;54.350;18.664;2024-01-06T12:15:24;4.10;89.90
18321;DHT22;54904;54.350;18.664;2024-01-06T12:17:51;4.10;90.00
18321;DHT22;54904;54.350;18.664;2024-01-06T12:20:18;4.00;90.00
18321;DHT22;54904;54.350;18.664;2024-01-06T12:22:46;4.00;90.10
18321;DHT22;54904;54.350;18.664;2024-01-06T12:25:15;4.00;90.20
18321;DHT22;54904;54.350;18.664;2024-01-06T12:27:43;4.00;90.30
18321;DHT22;54904;54.350;18.664;2024-01-06T12:30:13;4.00;90.30
18321;DHT22;54904;54.350;18.664;2024-01-06T12:32:42;4.00;90.40
18321;DHT22;54904;54.350;18.664;2024-01-06T12:35:09;4.10;90.50
18321;DHT22;54904;54.350;18.664;2024-01-06T12:37:37;4.10;90.60
18321;DHT22;54904;54.350;18.664;2024-01-06T12:40:08;4.10;90.60
18321;DHT22;54904;54.350;18.664;2024-01-06T12:42:38;4.00;90.70
18321;DHT22;54904;54.350;18.664;2024-01-06T12:45:06;4.00;90.60
18321;DHT22;54904;54.350;18.664;2024-01-06T12:47:34;4.00;90.60
18321;DHT22;54904;54.350;18.664;2024-01-06T12:50:01;4.00;90.60
18321;DHT22;54904;54.350;18.664;2024-01-06T12:52:30;4.00;90.60
18321;DHT22;54904;54.350;18.664;2024-01-06T12:54:57;4.00;90.60
18321;DHT22;54904;54.350;18.664;2024-01-06T12:57:25;3.90;90.60
18321;DHT22;54904;54.350;18.664;2024-01-06T12:59:52;3.90;90.90
18321;DHT22;54904;54.350;18.664;2024-01-06T13:02:20;3.90;90.60
18321;DHT22;54904;54.350;18.664;2024-01-06T13:04:47;3.90;90.60
18321;DHT22;54904;54.350;18.664;2024-01-06T13:07:15;4.00;90.60
18321;DHT22;54904;54.350;18.664;2024-01-06T13:09:42;4.00;90.50
18321;DHT22;54904;54.350;18.664;2024-01-06T13:12:10;4.00;90.40
18321;DHT22;54904;54.350;18.664;2024-01-06T13:14:38;4.00;90.30
18321;DHT22;54904;54.350;18.664;2024-01-06T13:17:05;3.90;90.20
18321;DHT22;54904;54.350;18.664;2024-01-06T13:19:34;3.90;90.10
18321;DHT22;54904;54.350;18.664;2024-01-06T13:22:01;3.90;90.20
18321;DHT22;54904;54.350;18.664;2024-01-06T13:24:28;3.90;90.20
18321;DHT22;54904;54.350;18.664;2024-01-06T13:26:55;3.90;90.20
18321;DHT22;54904;54.350;18.664;2024-01-06T13:29:24;3.80;90.10
18321;DHT22;54904;54.350;18.664;2024-01-06T13:31:55;3.90;90.20
18321;DHT22;54904;54.350;18.664;2024-01-06T13:34:23;3.90;90.10
18321;DHT22;54904;54.350;18.664;2024-01-06T13:36:50;3.90;90.00
18321;DHT22;54904;54.350;18.664;2024-01-06T13:39:17;3.90;89.90
18321;DHT22;54904;54.350;18.664;2024-01-06T13:41:49;3.90;89.80
18321;DHT22;54904;54.350;18.664;2024-01-06T13:44:16;3.90;89.70
18321;DHT22;54904;54.350;18.664;2024-01-06T13:46:43;3.80;89.60
18321;DHT22;54904;54.350;18.664;2024-01-06T13:49:13;3.80;89.50
18321;DHT22;54904;54.350;18.664;2024-01-06T13:51:40;3.90;89.60
18321;DHT22;54904;54.350;18.664;2024-01-06T13:54:07;3.90;89.60
18321;DHT22;54904;54.350;18.664;2024-01-06T13:56:35;3.90;89.60
18321;DHT22;54904;54.350;18.664;2024-01-06T13:59:02;3.90;89.60
18321;DHT22;54904;54.350;18.664;2024-01-06T14:01:29;3.90;89.70
18321;DHT22;54904;54.350;18.664;2024-01-06T14:03:57;4.00;89.80
18321;DHT22;54904;54.350;18.664;2024-01-06T14:06:26;4.00;89.80
18321;DHT22;54904;54.350;18.664;2024-01-06T14:08:55;4.00;89.90
18321;DHT22;54904;54.350;18.664;2024-01-06T14:11:23;4.00;90.00
18321;DHT22;54904;54.350;18.664;2024-01-06T14:13:51;4.00;90.00
18321;DHT22;54904;54.350;18.664;2024-01-06T14:16:18;4.00;90.00
18321;DHT22;54904;54.350;18.664;2024-01-06T14:18:46;4.00;90.10
18321;DHT22;54904;54.350;18.664;2024-01-06T14:21:13;4.00;90.10
18321;DHT22;54904;54.350;18.664;2024-01-06T14:23:42;3.90;90.10
18321;DHT22;54904;54.350;18.664;2024-01-06T14:26:10;3.90;90.10
18321;DHT22;54904;54.350;18.664;2024-01-06T14:28:37;3.90;90.10
18321;DHT22;54904;54.350;18.664;2024-01-06T14:31:04;3.90;90.00
18321;DHT22;54904;54.350;18.664;2024-01-06T14:33:31;3.90;89.90
18321;DHT22;54904;54.350;18.664;2024-01-06T14:36:00;3.90;89.90
18321;DHT22;54904;54.350;18.664;2024-01-06T14:38:27;3.90;90.00
18321;DHT22;54904;54.350;18.664;2024-01-06T14:40:56;3.90;90.00
18321;DHT22;54904;54.350;18.664;2024-01-06T14:43:24;3.90;90.00
18321;DHT22;54904;54.350;18.664;2024-01-06T14:45:51;4.00;90.00
18321;DHT22;54904;54.350;18.664;2024-01-06T14:48:18;4.00;89.70
18321;DHT22;54904;54.350;18.664;2024-01-06T14:50:45;4.10;89.60
18321;DHT22;54904;54.350;18.664;2024-01-06T14:53:14;4.10;89.30
18321;DHT22;54904;54.350;18.664;2024-01-06T14:55:41;4.10;89.20
18321;DHT22;54904;54.350;18.664;2024-01-06T14:58:09;4.10;89.30
18321;DHT22;54904;54.350;18.664;2024-01-06T15:00:36;4.10;89.40
18321;DHT22;54904;54.350;18.664;2024-01-06T15:03:04;4.00;89.50
18321;DHT22;54904;54.350;18.664;2024-01-06T15:05:31;4.00;89.60
18321;DHT22;54904;54.350;18.664;2024-01-06T15:07:58;3.90;89.60
18321;DHT22;54904;54.350;18.664;2024-01-06T15:10:25;3.90;89.90
18321;DHT22;54904;54.350;18.664;2024-01-06T15:12:52;3.90;90.00
18321;DHT22;54904;54.350;18.664;2024-01-06T15:15:21;3.90;90.10
18321;DHT22;54904;54.350;18.664;2024-01-06T15:17:48;3.90;90.20
18321;DHT22;54904;54.350;18.664;2024-01-06T15:20:15;3.90;90.20
18321;DHT22;54904;54.350;18.664;2024-01-06T15:22:42;3.90;90.30
18321;DHT22;54904;54.350;18.664;2024-01-06T15:25:09;3.90;90.40
18321;DHT22;54904;54.350;18.664;2024-01-06T15:27:36;3.90;90.40
18321;DHT22;54904;54.350;18.664;2024-01-06T15:30:04;4.00;90.50
18321;DHT22;54904;54.350;18.664;2024-01-06T15:32:36;3.90;90.50